This is the latest recevied weather packets stored in our database for station/object WX5II-15. If no packets are shown the sender has not sent any weather packets the latest 10 day(s).
| Time | Temp. | Humidity | Pressure | Rain* | Wind** | Luminosity | Snow |
|---|---|---|---|---|---|---|---|
| 1787789014 | 36.11° C | 43% | 1004.7 hPa | 0 mm | - | - | - |
| 1787788413 | 36.67° C | 42% | 1004.7 hPa | 0 mm | - | - | - |
| 1787787813 | 37.22° C | 41% | 1004.7 hPa | 0 mm | - | - | - |
| 1787787212 | 37.78° C | 40% | 1004.7 hPa | 0 mm | - | - | - |
| 1787786612 | 38.89° C | 37% | 1004.7 hPa | 0 mm | - | - | - |
| 1787786011 | 40.56° C | 35% | 1004.7 hPa | 0 mm | - | - | - |
| 1787785411 | 41.11° C | 34% | 1004.7 hPa | 0 mm | - | - | - |
| 1787784812 | 40.56° C | 35% | 1004.7 hPa | 0 mm | - | - | - |
| 1787784209 | 41.11° C | 33% | 1004.7 hPa | 0 mm | - | - | - |
| 1787783609 | 41.11° C | 34% | 1004.7 hPa | 0 mm | - | - | - |
| 1787783008 | 42.22° C | 33% | 1004.7 hPa | 0 mm | - | - | - |
| 1787782408 | 42.22° C | 33% | 1004.7 hPa | 0 mm | - | - | - |
| 1787781807 | 41.67° C | 33% | 1005 hPa | 0 mm | - | - | - |
| 1787781207 | 42.22° C | 33% | 1005 hPa | 0 mm | - | - | - |
| 1787780005 | 42.22° C | 33% | 1005.4 hPa | 0 mm | - | - | - |
| 1787779405 | 41.67° C | 33% | 1005.4 hPa | 0 mm | - | - | - |
| 1787778804 | 41.11° C | 34% | 1005.4 hPa | 0 mm | - | - | - |
| 1787778204 | 40.56° C | 35% | 1005.7 hPa | 0 mm | - | - | - |
| 1787777603 | 40° C | 35% | 1005.7 hPa | 0 mm | - | - | - |
| 1787777003 | 40° C | 36% | 1005.7 hPa | 0 mm | - | - | - |
| 1787776402 | 39.44° C | 35% | 1005.7 hPa | 0 mm | - | - | - |
| 1787775801 | 40° C | 33% | 1006 hPa | 0 mm | - | - | - |
| 1787775201 | 40.56° C | 32% | 1006 hPa | 0 mm | - | - | - |
| 1787774601 | 40° C | 31% | 1006.4 hPa | 0 mm | - | - | - |
| 1787774000 | 40° C | 33% | 1006.7 hPa | 0 mm | - | - | - |
* Rain latest hour (hover to see other rain measurements)
** Current wind speed in m/s (hover to see current wind gust speed)